createdAt,value
2023-05-10T00:00:31.051Z,80.53
2023-05-10T00:02:35.845Z,80.77
2023-05-10T00:04:38.813Z,80.28
2023-05-10T00:06:41.788Z,80.50
2023-05-10T00:08:44.577Z,81.33
2023-05-10T00:10:47.503Z,80.84
2023-05-10T00:12:50.549Z,81.21
2023-05-10T00:14:53.410Z,81.31
2023-05-10T00:16:56.387Z,80.61
2023-05-10T00:19:00.752Z,81.34
2023-05-10T00:21:03.590Z,81.15
2023-05-10T00:23:06.554Z,81.42
2023-05-10T00:25:10.990Z,80.76
2023-05-10T00:27:13.792Z,81.17
2023-05-10T00:29:16.618Z,81.25
2023-05-10T00:31:19.428Z,81.25
2023-05-10T00:33:22.234Z,80.61
2023-05-10T00:35:26.965Z,80.70
2023-05-10T00:37:30.157Z,80.73
2023-05-10T00:39:32.973Z,80.51
2023-05-10T00:41:35.883Z,80.48
2023-05-10T00:43:40.919Z,80.30
2023-05-10T00:45:43.999Z,80.41
2023-05-10T00:47:47.214Z,80.03
2023-05-10T00:49:50.162Z,80.26
2023-05-10T00:51:54.458Z,80.22
2023-05-10T00:53:57.777Z,79.82
2023-05-10T00:56:02.226Z,80.07
2023-05-10T00:58:05.302Z,80.08
2023-05-10T01:00:09.344Z,80.16
2023-05-10T01:02:12.770Z,80.30
2023-05-10T01:04:17.224Z,79.31
2023-05-10T01:06:20.097Z,79.96
2023-05-10T01:08:24.432Z,79.62
2023-05-10T01:10:27.471Z,79.67
2023-05-10T01:12:30.553Z,79.98
2023-05-10T01:14:33.482Z,80.09
2023-05-10T01:16:39.511Z,80.26
2023-05-10T01:18:43.933Z,80.27
2023-05-10T01:20:50.606Z,79.97
2023-05-10T01:23:16.175Z,80.02
2023-05-10T01:25:38.165Z,80.10
2023-05-10T01:28:03.412Z,80.02
2023-05-10T01:30:45.449Z,80.30
2023-05-10T01:32:57.140Z,79.69
2023-05-10T01:35:04.678Z,80.17
2023-05-10T01:37:11.252Z,79.87
2023-05-10T01:39:19.858Z,80.58
2023-05-10T01:41:30.184Z,80.57
2023-05-10T01:43:36.892Z,80.53
2023-05-10T01:45:49.331Z,79.65
2023-05-10T01:48:00.529Z,79.90
2023-05-10T01:50:06.653Z,80.28
2023-05-10T01:52:13.862Z,80.69
2023-05-10T01:54:19.630Z,80.07
2023-05-10T01:56:28.005Z,79.81
2023-05-10T01:58:33.878Z,79.73
2023-05-10T02:00:38.626Z,79.73
2023-05-10T02:02:44.138Z,79.28
2023-05-10T02:04:51.511Z,79.70
2023-05-10T02:06:56.007Z,79.89
2023-05-10T02:08:59.428Z,80.15
2023-05-10T02:11:04.634Z,79.96
2023-05-10T02:13:08.383Z,80.18
2023-05-10T02:15:13.659Z,79.68
2023-05-10T02:17:17.400Z,80.37
2023-05-10T02:19:22.238Z,80.14
2023-05-10T02:21:27.337Z,80.20
2023-05-10T02:23:30.589Z,79.93
2023-05-10T02:25:34.631Z,80.23
2023-05-10T02:27:39.151Z,79.58
2023-05-10T02:29:42.924Z,80.46
2023-05-10T02:31:47.527Z,80.15
2023-05-10T02:33:51.158Z,80.14
2023-05-10T02:35:55.327Z,79.75
2023-05-10T02:38:01.126Z,79.60
2023-05-10T02:40:07.767Z,79.73
2023-05-10T02:42:11.864Z,79.73
2023-05-10T02:44:16.979Z,80.34
2023-05-10T02:46:20.170Z,80.63
2023-05-10T02:48:23.153Z,80.39
2023-05-10T02:50:29.900Z,80.58
2023-05-10T02:52:46.424Z,79.88
2023-05-10T02:54:54.385Z,80.74
2023-05-10T02:57:00.457Z,80.36
2023-05-10T02:59:03.507Z,80.00
2023-05-10T03:01:08.383Z,81.00
2023-05-10T03:03:11.208Z,80.08
2023-05-10T03:05:14.080Z,80.67
2023-05-10T03:07:17.996Z,79.99
2023-05-10T03:09:22.154Z,79.99
2023-05-10T03:11:32.054Z,80.42
2023-05-10T03:13:47.950Z,80.48
2023-05-10T03:15:59.987Z,80.58
2023-05-10T03:18:08.843Z,79.70
2023-05-10T03:20:15.628Z,80.84
2023-05-10T03:22:26.404Z,80.56
2023-05-10T03:24:30.339Z,80.39
2023-05-10T03:26:38.125Z,80.70
2023-05-10T03:28:47.699Z,80.05
2023-05-10T03:30:52.011Z,80.61
2023-05-10T03:32:55.121Z,80.29
2023-05-10T03:34:57.990Z,80.01
2023-05-10T03:37:01.786Z,80.40
2023-05-10T03:39:07.622Z,79.94
2023-05-10T03:41:10.586Z,79.97
2023-05-10T03:43:14.773Z,79.75
2023-05-10T03:45:18.721Z,80.23
2023-05-10T03:47:21.544Z,79.58
2023-05-10T03:49:25.871Z,79.92
2023-05-10T03:51:29.287Z,79.49
2023-05-10T03:53:32.116Z,80.00
2023-05-10T03:55:37.009Z,80.35
2023-05-10T03:57:40.955Z,80.05
2023-05-10T03:59:45.933Z,80.20
2023-05-10T04:01:48.753Z,80.21
2023-05-10T04:03:51.775Z,80.07
2023-05-10T04:06:00.862Z,79.97
2023-05-10T04:08:03.979Z,79.70
2023-05-10T04:10:08.088Z,79.75
2023-05-10T04:12:11.202Z,79.87
2023-05-10T04:14:14.150Z,80.21
2023-05-10T04:16:18.372Z,79.55
2023-05-10T04:18:21.181Z,79.66
2023-05-10T04:20:23.982Z,80.06
2023-05-10T04:22:26.918Z,80.06
2023-05-10T04:24:29.708Z,79.59
2023-05-10T04:26:32.529Z,79.73
2023-05-10T04:28:35.731Z,79.18
2023-05-10T04:30:38.616Z,78.76
2023-05-10T04:32:42.826Z,78.30
2023-05-10T04:34:45.653Z,78.50
2023-05-10T04:36:48.407Z,78.95
2023-05-10T04:38:51.152Z,79.33
2023-05-10T04:40:53.988Z,78.87
2023-05-10T04:42:56.810Z,78.30
2023-05-10T04:44:59.614Z,78.90
2023-05-10T04:47:03.180Z,78.83
2023-05-10T04:49:07.489Z,78.87
2023-05-10T04:51:10.382Z,79.16
2023-05-10T04:53:15.832Z,79.60
2023-05-10T04:55:18.928Z,79.54
2023-05-10T04:57:22.207Z,79.52
2023-05-10T04:59:25.006Z,79.50
2023-05-10T05:01:28.063Z,79.57
2023-05-10T05:03:31.000Z,79.65
2023-05-10T05:05:35.167Z,79.51
2023-05-10T05:07:38.366Z,80.16
2023-05-10T05:09:41.328Z,79.49
2023-05-10T05:11:44.113Z,79.97
2023-05-10T05:13:46.914Z,79.62
2023-05-10T05:15:49.752Z,79.22
2023-05-10T05:17:52.770Z,79.88
2023-05-10T05:19:56.697Z,79.97
2023-05-10T05:22:00.861Z,79.73
2023-05-10T05:24:03.729Z,79.68
2023-05-10T05:26:06.522Z,80.33
2023-05-10T05:28:09.372Z,80.09
2023-05-10T05:30:13.498Z,79.97
2023-05-10T05:32:16.442Z,80.01
2023-05-10T05:34:21.347Z,80.02
2023-05-10T05:36:24.204Z,79.89
2023-05-10T05:38:28.385Z,80.14
2023-05-10T05:40:31.106Z,80.29
2023-05-10T05:42:33.996Z,79.98
2023-05-10T05:44:36.879Z,80.71
2023-05-10T05:46:39.790Z,80.51
2023-05-10T05:48:42.545Z,79.67
2023-05-10T05:50:46.458Z,79.54
2023-05-10T05:52:49.286Z,79.62
2023-05-10T05:54:53.438Z,79.92
2023-05-10T05:56:56.588Z,80.74
2023-05-10T05:58:59.559Z,80.49
2023-05-10T06:01:02.382Z,79.82
2023-05-10T06:03:05.442Z,80.54
2023-05-10T06:05:09.413Z,81.16
2023-05-10T06:07:12.201Z,80.78
2023-05-10T06:09:15.093Z,80.59
2023-05-10T06:11:19.240Z,80.12
2023-05-10T06:13:22.241Z,80.51
2023-05-10T06:15:25.085Z,80.88
2023-05-10T06:17:28.521Z,81.18
2023-05-10T06:19:31.721Z,80.55
2023-05-10T06:21:34.517Z,80.93
2023-05-10T06:23:37.774Z,80.40
2023-05-10T06:25:41.118Z,79.96
2023-05-10T06:27:49.039Z,80.11
2023-05-10T06:30:02.010Z,80.36
2023-05-10T06:32:09.241Z,80.49
2023-05-10T06:34:12.685Z,81.14
2023-05-10T06:36:15.536Z,80.72
2023-05-10T06:38:18.313Z,80.34
2023-05-10T06:40:21.336Z,80.51
2023-05-10T06:42:26.316Z,80.51
2023-05-10T06:44:30.481Z,80.96
2023-05-10T06:46:36.369Z,80.27
2023-05-10T06:48:39.189Z,80.74
2023-05-10T06:50:41.971Z,79.91
2023-05-10T06:52:44.863Z,80.55
2023-05-10T06:54:47.621Z,79.68
2023-05-10T06:56:50.508Z,80.27
2023-05-10T06:58:53.582Z,80.38
2023-05-10T07:01:04.033Z,80.72
2023-05-10T07:03:07.104Z,80.07
2023-05-10T07:05:10.735Z,80.30
2023-05-10T07:07:14.421Z,80.04
2023-05-10T07:09:17.299Z,79.46
2023-05-10T07:11:20.139Z,79.44
2023-05-10T07:13:23.183Z,78.37
2023-05-10T07:15:26.148Z,78.74
2023-05-10T07:17:30.363Z,78.87
2023-05-10T07:19:33.824Z,78.51
2023-05-10T07:21:37.075Z,79.02
2023-05-10T07:23:39.941Z,79.04
2023-05-10T07:25:42.922Z,78.82
2023-05-10T07:27:45.880Z,78.97
2023-05-10T07:29:48.701Z,78.88
2023-05-10T07:31:51.539Z,78.83
2023-05-10T07:33:55.798Z,78.02
2023-05-10T07:35:58.684Z,77.70
2023-05-10T07:38:01.877Z,77.44
2023-05-10T07:40:05.115Z,77.71
2023-05-10T07:42:08.208Z,78.17
2023-05-10T07:44:11.079Z,77.27
2023-05-10T07:46:13.956Z,77.75
2023-05-10T07:48:16.784Z,76.95
2023-05-10T07:50:22.026Z,77.23
2023-05-10T07:52:24.802Z,77.52
2023-05-10T07:54:27.597Z,76.85
2023-05-10T07:56:32.585Z,76.54
2023-05-10T07:58:35.508Z,76.65
2023-05-10T08:00:40.382Z,77.20
2023-05-10T08:02:43.272Z,77.42
2023-05-10T08:04:46.531Z,77.08
2023-05-10T08:06:50.813Z,76.29
2023-05-10T08:08:54.974Z,76.43
2023-05-10T08:10:57.797Z,76.36
2023-05-10T08:13:00.621Z,76.01
2023-05-10T08:15:03.392Z,76.54
2023-05-10T08:17:06.290Z,76.80
2023-05-10T08:19:09.239Z,76.27
2023-05-10T08:21:12.556Z,76.38
2023-05-10T08:23:16.867Z,75.89
2023-05-10T08:25:19.978Z,76.35
2023-05-10T08:27:22.876Z,76.47
2023-05-10T08:29:26.738Z,76.19
2023-05-10T08:31:31.211Z,75.22
2023-05-10T08:33:34.106Z,74.79
2023-05-10T08:35:36.968Z,75.68
2023-05-10T08:37:41.937Z,74.46
2023-05-10T08:39:46.730Z,74.21
2023-05-10T08:41:51.717Z,73.13
2023-05-10T08:43:55.648Z,72.79
2023-05-10T08:46:01.945Z,72.90
2023-05-10T08:48:08.387Z,73.12
2023-05-10T08:50:12.621Z,73.19
2023-05-10T08:52:17.522Z,73.25
2023-05-10T08:54:20.622Z,72.84
2023-05-10T08:56:25.400Z,72.93
2023-05-10T08:58:28.328Z,73.12
2023-05-10T09:00:31.586Z,71.39
2023-05-10T09:02:35.070Z,72.07
2023-05-10T09:04:37.991Z,72.85
2023-05-10T09:06:41.113Z,72.97
2023-05-10T09:08:45.414Z,71.91
2023-05-10T09:10:50.156Z,72.56
2023-05-10T09:12:55.988Z,73.03
2023-05-10T09:15:01.584Z,72.96
2023-05-10T09:17:04.640Z,72.61
2023-05-10T09:19:07.996Z,72.39
2023-05-10T09:21:11.977Z,73.05
2023-05-10T09:23:14.742Z,72.77
2023-05-10T09:25:18.805Z,72.65
2023-05-10T09:27:29.031Z,71.82
2023-05-10T09:29:42.441Z,71.56
2023-05-10T09:31:48.333Z,71.79
2023-05-10T09:33:51.765Z,72.11
2023-05-10T09:35:54.833Z,71.93
2023-05-10T09:37:59.554Z,72.14
2023-05-10T09:40:02.507Z,72.04
2023-05-10T09:42:07.090Z,71.91
2023-05-10T09:44:09.758Z,69.59
2023-05-10T09:46:14.027Z,69.20
2023-05-10T09:48:16.860Z,69.64
2023-05-10T09:50:21.393Z,70.17
2023-05-10T09:52:24.061Z,70.00
2023-05-10T09:54:26.843Z,69.78
2023-05-10T09:56:36.686Z,68.90
2023-05-10T09:58:39.966Z,67.91
2023-05-10T10:00:44.158Z,67.28
2023-05-10T10:02:57.341Z,65.80
2023-05-10T10:05:02.809Z,66.03
2023-05-10T10:07:06.770Z,65.29
2023-05-10T10:09:10.144Z,65.24
2023-05-10T10:11:12.940Z,65.27
2023-05-10T10:13:16.450Z,66.10
2023-05-10T10:15:20.149Z,66.32
2023-05-10T10:17:23.570Z,66.50
2023-05-10T10:19:28.796Z,66.58
2023-05-10T10:21:31.860Z,65.38
2023-05-10T10:23:34.701Z,65.08
2023-05-10T10:25:37.795Z,64.39
2023-05-10T10:27:51.177Z,64.34
2023-05-10T10:30:04.033Z,64.60
2023-05-10T10:32:19.551Z,63.60
2023-05-10T10:34:29.816Z,64.09
2023-05-10T10:36:34.811Z,64.00
2023-05-10T10:38:39.855Z,63.07
2023-05-10T10:40:43.379Z,63.03
2023-05-10T10:42:47.083Z,63.56
2023-05-10T10:44:49.916Z,62.94
2023-05-10T10:47:03.491Z,61.49
2023-05-10T10:49:18.159Z,60.91
2023-05-10T10:51:22.356Z,60.48
2023-05-10T10:53:28.345Z,60.43
2023-05-10T10:55:31.381Z,60.95
2023-05-10T10:57:35.719Z,58.96
2023-05-10T10:59:42.940Z,58.53
2023-05-10T11:01:45.989Z,58.91
2023-05-10T11:04:22.237Z,56.55
2023-05-10T11:06:33.550Z,57.33
2023-05-10T11:08:43.135Z,58.38
2023-05-10T11:11:05.482Z,57.81
2023-05-10T11:13:09.602Z,57.55
2023-05-10T11:15:12.552Z,56.34
2023-05-10T11:17:25.580Z,56.58
2023-05-10T11:19:30.101Z,56.06
2023-05-10T11:21:35.778Z,55.03
2023-05-10T11:26:06.953Z,55.02
2023-05-10T11:28:10.088Z,53.96
2023-05-10T11:30:14.386Z,54.60
2023-05-10T11:32:17.370Z,54.91
2023-05-10T11:34:27.096Z,54.44
2023-05-10T11:36:32.021Z,53.68
2023-05-10T11:38:36.263Z,52.35
2023-05-10T11:40:41.374Z,53.56
2023-05-10T11:42:44.268Z,54.14
2023-05-10T11:44:48.910Z,54.01
2023-05-10T11:46:51.839Z,54.08
2023-05-10T11:48:57.744Z,54.23
2023-05-10T11:51:00.709Z,53.46
2023-05-10T11:53:03.558Z,53.65
2023-05-10T11:55:08.645Z,52.91
2023-05-10T11:57:16.027Z,53.57
2023-05-10T11:59:18.904Z,53.32
2023-05-10T12:01:23.235Z,53.33
2023-05-10T12:03:26.225Z,53.87
2023-05-10T12:05:29.488Z,53.48
2023-05-10T12:07:32.309Z,55.23
2023-05-10T12:09:43.100Z,54.93
2023-05-10T12:11:47.693Z,55.17
2023-05-10T12:13:50.890Z,55.04
2023-05-10T12:15:53.999Z,55.34
2023-05-10T12:17:58.860Z,55.19
2023-05-10T12:20:15.795Z,54.49
2023-05-10T12:22:25.324Z,54.32
2023-05-10T12:24:28.099Z,53.59
2023-05-10T12:26:31.529Z,52.01
2023-05-10T12:28:36.387Z,52.28
2023-05-10T12:30:41.824Z,52.75
2023-05-10T12:32:46.286Z,52.82
2023-05-10T12:34:49.474Z,52.28
2023-05-10T12:36:52.706Z,53.19
2023-05-10T12:39:04.552Z,52.89
2023-05-10T12:41:09.309Z,52.95
2023-05-10T12:43:12.436Z,53.00
2023-05-10T12:45:16.944Z,53.62
2023-05-10T12:47:20.096Z,53.69
2023-05-10T12:49:23.332Z,53.74
2023-05-10T12:51:26.222Z,54.36
2023-05-10T12:53:31.346Z,53.62
2023-05-10T12:55:34.382Z,53.26
2023-05-10T12:57:39.240Z,53.64
2023-05-10T12:59:42.370Z,53.73
2023-05-10T13:01:46.747Z,53.45
2023-05-10T13:03:49.583Z,53.50
2023-05-10T13:05:52.350Z,52.95
2023-05-10T13:07:55.324Z,53.37
2023-05-10T13:09:58.174Z,53.88
2023-05-10T13:12:01.369Z,52.19
2023-05-10T13:14:14.289Z,52.48
2023-05-10T13:16:17.135Z,51.14
2023-05-10T13:18:21.433Z,50.87
2023-05-10T13:20:24.288Z,50.98
2023-05-10T13:22:39.187Z,50.50
2023-05-10T13:24:42.853Z,50.53
2023-05-10T13:26:45.790Z,50.67
2023-05-10T13:28:49.980Z,51.23
2023-05-10T13:30:52.808Z,49.62
2023-05-10T13:32:55.719Z,49.33
2023-05-10T13:34:59.843Z,49.77
2023-05-10T13:37:02.857Z,50.39
2023-05-10T13:39:06.236Z,50.77
2023-05-10T13:41:09.057Z,50.18
2023-05-10T13:43:11.866Z,49.14
2023-05-10T13:45:14.951Z,49.24
2023-05-10T13:47:17.890Z,48.85
2023-05-10T13:49:20.896Z,48.64
2023-05-10T13:51:25.136Z,48.31
2023-05-10T13:53:27.953Z,48.57
2023-05-10T13:55:31.535Z,48.64
2023-05-10T13:57:44.613Z,48.31
2023-05-10T13:59:48.039Z,46.96
2023-05-10T14:01:50.946Z,47.25
2023-05-10T14:03:54.228Z,47.16
2023-05-10T14:05:57.122Z,47.32
2023-05-10T14:08:01.287Z,47.27
2023-05-10T14:10:05.065Z,46.44
2023-05-10T14:12:07.952Z,46.28
2023-05-10T14:14:10.912Z,46.81
2023-05-10T14:16:15.676Z,46.59
2023-05-10T14:18:18.591Z,46.83
2023-05-10T14:20:21.432Z,47.86
2023-05-10T14:22:24.553Z,45.34
2023-05-10T14:24:28.780Z,45.36
2023-05-10T14:26:31.613Z,45.27
2023-05-10T14:28:34.789Z,45.45
2023-05-10T14:30:37.722Z,45.58
2023-05-10T14:32:40.753Z,44.03
2023-05-10T14:34:44.231Z,44.91
2023-05-10T14:36:47.535Z,46.04
2023-05-10T14:38:50.358Z,44.89
2023-05-10T14:40:55.061Z,43.30
2023-05-10T14:42:58.519Z,44.39
2023-05-10T14:45:01.955Z,44.01
2023-05-10T14:47:05.081Z,43.83
2023-05-10T14:49:07.977Z,44.29
2023-05-10T14:51:14.409Z,44.61
2023-05-10T14:53:19.184Z,44.39
2023-05-10T14:55:22.186Z,43.73
2023-05-10T14:57:26.802Z,44.25
2023-05-10T14:59:29.935Z,43.71
2023-05-10T15:01:34.092Z,43.13
2023-05-10T15:03:38.300Z,43.55
2023-05-10T15:05:43.641Z,43.54
2023-05-10T15:07:46.725Z,44.88
2023-05-10T15:09:49.592Z,45.07
2023-05-10T15:11:53.291Z,43.77
2023-05-10T15:13:57.873Z,43.54
2023-05-10T15:16:03.702Z,45.27
2023-05-10T15:18:07.834Z,44.94
2023-05-10T15:20:11.276Z,43.35
2023-05-10T15:22:14.165Z,43.89
2023-05-10T15:24:17.803Z,43.51
2023-05-10T15:26:20.532Z,43.65
2023-05-10T15:28:23.618Z,43.09
2023-05-10T15:30:28.039Z,43.19
2023-05-10T15:32:31.149Z,43.38
2023-05-10T15:34:37.014Z,42.58
2023-05-10T15:36:40.443Z,42.41
2023-05-10T15:38:43.797Z,42.60
2023-05-10T15:40:46.655Z,42.28
2023-05-10T15:42:49.495Z,42.43
2023-05-10T15:44:52.301Z,41.66
2023-05-10T15:46:56.753Z,42.81
2023-05-10T15:49:00.140Z,42.78
2023-05-10T15:51:03.001Z,43.15
2023-05-10T15:53:05.780Z,43.31
2023-05-10T15:55:13.100Z,43.53
2023-05-10T15:57:16.564Z,43.33
2023-05-10T15:59:19.353Z,42.49
2023-05-10T16:01:22.256Z,42.36
2023-05-10T16:03:26.604Z,43.03
2023-05-10T16:05:32.558Z,43.80
2023-05-10T16:07:35.482Z,44.01
2023-05-10T16:09:38.253Z,43.45
2023-05-10T16:11:41.936Z,43.91
2023-05-10T16:13:44.740Z,42.72
2023-05-10T16:15:47.471Z,42.65
2023-05-10T16:17:50.582Z,42.67
2023-05-10T16:19:55.025Z,42.87
2023-05-10T16:21:57.971Z,42.51
2023-05-10T16:24:04.718Z,42.59
2023-05-10T16:26:07.566Z,42.74
2023-05-10T16:28:10.758Z,43.60
2023-05-10T16:30:14.217Z,42.11
2023-05-10T16:32:17.201Z,42.99
2023-05-10T16:34:24.047Z,44.36
2023-05-10T16:36:29.586Z,44.76
2023-05-10T16:38:32.566Z,46.37
2023-05-10T16:40:35.395Z,44.80
2023-05-10T16:42:38.237Z,44.92
2023-05-10T16:44:41.333Z,45.34
2023-05-10T16:46:44.734Z,44.35
2023-05-10T16:48:47.621Z,44.61
2023-05-10T16:50:50.473Z,46.53
2023-05-10T16:52:54.752Z,45.68
2023-05-10T16:54:57.575Z,46.85
2023-05-10T16:57:01.164Z,47.66
2023-05-10T16:59:04.008Z,46.67
2023-05-10T17:01:07.210Z,47.06
2023-05-10T17:03:10.219Z,47.16
2023-05-10T17:05:13.214Z,47.26
2023-05-10T17:07:16.322Z,47.60
2023-05-10T17:09:21.116Z,48.25
2023-05-10T17:11:24.043Z,49.16
2023-05-10T17:13:26.895Z,48.78
2023-05-10T17:15:30.008Z,49.48
2023-05-10T17:17:32.879Z,50.50
2023-05-10T17:19:36.166Z,51.05
2023-05-10T17:21:38.919Z,50.19
2023-05-10T17:23:41.660Z,51.21
2023-05-10T17:25:45.748Z,50.00
2023-05-10T17:27:48.565Z,49.67
2023-05-10T17:29:51.407Z,49.20
2023-05-10T17:31:54.186Z,48.54
2023-05-10T17:33:57.189Z,49.48
2023-05-10T17:36:03.766Z,48.98
2023-05-10T17:38:07.001Z,49.10
2023-05-10T17:40:11.276Z,48.66
2023-05-10T17:42:17.467Z,49.35
2023-05-10T17:44:20.483Z,49.28
2023-05-10T17:46:23.716Z,48.61
2023-05-10T17:48:26.616Z,49.82
2023-05-10T17:50:29.418Z,49.77
2023-05-10T17:52:33.576Z,49.20
2023-05-10T17:54:36.601Z,48.77
2023-05-10T17:56:39.421Z,50.53
2023-05-10T17:58:43.566Z,49.51
2023-05-10T18:00:46.567Z,50.08
2023-05-10T18:02:49.397Z,51.64
2023-05-10T18:04:52.402Z,52.13
2023-05-10T18:07:01.079Z,51.93
2023-05-10T18:09:04.794Z,52.36
2023-05-10T18:11:07.705Z,53.27
2023-05-10T18:13:10.456Z,52.75
2023-05-10T18:15:14.887Z,53.03
2023-05-10T18:17:17.908Z,53.15
2023-05-10T18:19:22.282Z,53.76
2023-05-10T18:21:25.082Z,53.07
2023-05-10T18:23:27.899Z,54.25
2023-05-10T18:25:31.070Z,53.42
2023-05-10T18:27:34.359Z,53.33
2023-05-10T18:29:37.711Z,53.73
2023-05-10T18:31:42.008Z,53.32
2023-05-10T18:33:45.911Z,53.40
2023-05-10T18:35:48.783Z,53.70
2023-05-10T18:37:53.143Z,54.26
2023-05-10T18:39:56.254Z,54.32
2023-05-10T18:41:59.070Z,54.01
2023-05-10T18:44:01.843Z,54.79
2023-05-10T18:46:04.807Z,55.18
2023-05-10T18:48:09.053Z,54.96
2023-05-10T18:50:13.012Z,54.86
2023-05-10T18:52:16.128Z,55.61
2023-05-10T18:54:19.006Z,55.87
2023-05-10T18:56:22.404Z,56.18
2023-05-10T18:58:25.666Z,55.30
2023-05-10T19:00:28.715Z,55.91
2023-05-10T19:02:31.541Z,56.08
2023-05-10T19:04:35.762Z,54.99
2023-05-10T19:06:38.574Z,55.17
2023-05-10T19:08:41.426Z,55.21
2023-05-10T19:10:45.754Z,55.57
2023-05-10T19:12:48.658Z,55.65
2023-05-10T19:14:51.486Z,55.46
2023-05-10T19:16:54.577Z,55.76
2023-05-10T19:18:57.451Z,56.53
2023-05-10T19:21:03.543Z,56.54
2023-05-10T19:23:10.085Z,57.03
2023-05-10T19:25:14.079Z,56.93
2023-05-10T19:27:17.035Z,56.64
2023-05-10T19:29:19.899Z,56.61
2023-05-10T19:31:23.276Z,57.24
2023-05-10T19:33:26.136Z,57.02
2023-05-10T19:35:29.069Z,57.07
2023-05-10T19:37:33.187Z,56.86
2023-05-10T19:39:36.041Z,57.04
2023-05-10T19:41:38.852Z,56.94
2023-05-10T19:43:42.635Z,56.87
2023-05-10T19:45:45.560Z,56.83
2023-05-10T19:47:48.487Z,57.26
2023-05-10T19:49:51.412Z,56.94
2023-05-10T19:51:54.234Z,56.92
2023-05-10T19:53:58.446Z,57.09
2023-05-10T19:56:06.179Z,57.75
2023-05-10T19:58:09.197Z,56.90
2023-05-10T20:00:13.175Z,56.56
2023-05-10T20:02:15.946Z,55.92
2023-05-10T20:04:18.710Z,54.11
2023-05-10T20:06:21.564Z,54.13
2023-05-10T20:08:24.400Z,54.31
2023-05-10T20:10:28.575Z,54.08
2023-05-10T20:12:33.559Z,53.85
2023-05-10T20:14:36.414Z,53.79
2023-05-10T20:16:39.279Z,53.77
2023-05-10T20:18:42.153Z,53.85
2023-05-10T20:20:46.118Z,53.54
2023-05-10T20:22:49.652Z,53.75
2023-05-10T20:24:54.377Z,53.74
2023-05-10T20:27:00.426Z,53.83
2023-05-10T20:29:03.743Z,54.35
2023-05-10T20:31:06.614Z,55.74
2023-05-10T20:33:09.645Z,56.01
2023-05-10T20:35:12.590Z,55.83
2023-05-10T20:37:18.200Z,56.11
2023-05-10T20:39:21.357Z,56.41
2023-05-10T20:41:24.727Z,55.64
2023-05-10T20:43:29.218Z,56.11
2023-05-10T20:45:32.020Z,56.33
2023-05-10T20:47:34.990Z,56.02
2023-05-10T20:49:38.013Z,55.89
2023-05-10T20:51:40.867Z,56.41
2023-05-10T20:53:43.679Z,56.91
2023-05-10T20:55:46.426Z,57.65
2023-05-10T20:57:49.221Z,57.44
2023-05-10T20:59:53.688Z,57.54
2023-05-10T21:01:58.036Z,58.26
2023-05-10T21:04:00.920Z,59.28
2023-05-10T21:06:03.825Z,59.61
2023-05-10T21:08:07.273Z,59.63
2023-05-10T21:10:12.240Z,59.69
2023-05-10T21:12:15.155Z,59.91
2023-05-10T21:14:18.038Z,59.98
2023-05-10T21:16:22.265Z,60.35
2023-05-10T21:18:25.340Z,60.15
2023-05-10T21:20:28.226Z,60.61
2023-05-10T21:22:31.002Z,60.89
2023-05-10T21:24:35.010Z,61.26
2023-05-10T21:26:38.009Z,60.98
2023-05-10T21:28:42.335Z,60.70
2023-05-10T21:30:45.139Z,61.45
2023-05-10T21:32:49.271Z,60.41
2023-05-10T21:34:52.074Z,60.40
2023-05-10T21:36:55.439Z,61.67
2023-05-10T21:38:58.427Z,61.43
2023-05-10T21:41:01.969Z,61.33
2023-05-10T21:43:04.775Z,60.23
2023-05-10T21:45:08.536Z,59.72
2023-05-10T21:47:11.403Z,60.27
2023-05-10T21:49:15.550Z,61.20
2023-05-10T21:51:18.349Z,61.73
2023-05-10T21:53:22.326Z,61.63
2023-05-10T21:55:25.486Z,61.97
2023-05-10T21:57:28.392Z,62.60
2023-05-10T21:59:31.155Z,62.86
2023-05-10T22:01:34.039Z,62.47
2023-05-10T22:03:36.984Z,63.28
2023-05-10T22:05:41.217Z,62.26
2023-05-10T22:07:44.054Z,62.18
2023-05-10T22:09:46.858Z,62.21
2023-05-10T22:11:52.409Z,62.48
2023-05-10T22:13:55.217Z,62.94
2023-05-10T22:15:58.033Z,62.86
2023-05-10T22:18:00.913Z,62.74
2023-05-10T22:20:03.709Z,63.02
2023-05-10T22:22:07.856Z,63.56
2023-05-10T22:24:10.666Z,63.87
2023-05-10T22:26:13.480Z,64.53
2023-05-10T22:28:16.362Z,64.29
2023-05-10T22:30:19.828Z,64.57
2023-05-10T22:32:22.894Z,64.30
2023-05-10T22:34:25.778Z,63.77
2023-05-10T22:36:28.968Z,65.20
2023-05-10T22:38:33.248Z,64.67
2023-05-10T22:40:36.091Z,64.73
2023-05-10T22:42:39.020Z,64.38
2023-05-10T22:44:41.847Z,64.83
2023-05-10T22:46:44.811Z,64.44
2023-05-10T22:48:48.008Z,64.65
2023-05-10T22:50:50.903Z,64.54
2023-05-10T22:52:53.721Z,64.68
2023-05-10T22:54:58.079Z,65.52
2023-05-10T22:57:00.904Z,64.54
2023-05-10T22:59:03.765Z,64.94
2023-05-10T23:01:06.632Z,64.86
2023-05-10T23:03:09.636Z,64.47
2023-05-10T23:05:13.148Z,64.02
2023-05-10T23:07:15.982Z,64.24
2023-05-10T23:09:18.772Z,63.36
2023-05-10T23:11:22.878Z,63.65
2023-05-10T23:13:25.709Z,64.27
2023-05-10T23:15:28.448Z,63.98
2023-05-10T23:17:31.350Z,64.84
2023-05-10T23:19:34.443Z,64.81
2023-05-10T23:21:37.162Z,64.62
2023-05-10T23:23:40.031Z,64.75
2023-05-10T23:25:42.837Z,65.11
2023-05-10T23:27:46.961Z,64.86
2023-05-10T23:29:52.249Z,65.36
2023-05-10T23:31:55.052Z,65.48
2023-05-10T23:33:57.915Z,65.20
2023-05-10T23:36:00.860Z,65.05
2023-05-10T23:38:03.694Z,65.36
2023-05-10T23:40:08.064Z,65.34
2023-05-10T23:42:10.880Z,65.13
2023-05-10T23:44:15.021Z,65.56
2023-05-10T23:46:17.886Z,66.07
2023-05-10T23:48:20.809Z,65.55
2023-05-10T23:50:23.596Z,65.50
2023-05-10T23:52:26.456Z,66.12
2023-05-10T23:54:29.485Z,65.79
2023-05-10T23:56:32.312Z,66.01
2023-05-10T23:58:35.155Z,65.90
